createdAt,value
2018-07-16T00:00:32.222Z,99.90
2018-07-16T00:03:00.687Z,99.90
2018-07-16T00:05:29.203Z,99.90
2018-07-16T00:07:57.702Z,99.90
2018-07-16T00:10:26.207Z,99.90
2018-07-16T00:12:54.707Z,99.90
2018-07-16T00:15:23.534Z,99.90
2018-07-16T00:17:52.036Z,99.90
2018-07-16T00:20:20.511Z,99.90
2018-07-16T00:22:49.591Z,99.90
2018-07-16T00:25:18.279Z,99.90
2018-07-16T00:27:46.774Z,99.90
2018-07-16T00:30:15.259Z,99.90
2018-07-16T00:32:43.759Z,99.90
2018-07-16T00:35:12.623Z,99.90
2018-07-16T00:37:41.123Z,99.90
2018-07-16T00:40:09.619Z,99.90
2018-07-16T00:42:38.191Z,99.90
2018-07-16T00:45:07.023Z,99.90
2018-07-16T00:47:35.699Z,99.90
2018-07-16T00:50:04.568Z,99.90
2018-07-16T00:52:33.097Z,99.90
2018-07-16T00:55:01.599Z,99.90
2018-07-16T00:57:30.146Z,99.90
2018-07-16T00:59:59.075Z,99.90
2018-07-16T01:02:27.582Z,99.90
2018-07-16T01:04:56.086Z,99.90
2018-07-16T01:07:24.564Z,99.90
2018-07-16T01:09:53.066Z,99.90
2018-07-16T01:12:21.555Z,99.90
2018-07-16T01:14:50.059Z,99.90
2018-07-16T01:17:18.529Z,99.90
2018-07-16T01:19:47.023Z,99.90
2018-07-16T01:22:15.515Z,99.90
2018-07-16T01:24:44.088Z,99.90
2018-07-16T01:27:12.589Z,99.90
2018-07-16T01:29:41.171Z,99.90
2018-07-16T01:32:10.194Z,99.90
2018-07-16T01:34:38.712Z,99.90
2018-07-16T01:37:07.273Z,99.90
2018-07-16T01:39:35.782Z,99.90
2018-07-16T01:42:04.371Z,99.90
2018-07-16T01:44:32.879Z,99.90
2018-07-16T01:47:01.364Z,99.90
2018-07-16T01:49:30.111Z,99.90
2018-07-16T01:51:58.625Z,99.90
2018-07-16T01:54:27.755Z,99.90
2018-07-16T01:56:56.259Z,99.90
2018-07-16T01:59:24.752Z,99.90
2018-07-16T02:01:53.242Z,99.90
2018-07-16T02:04:21.743Z,99.90
2018-07-16T02:06:50.238Z,99.90
2018-07-16T02:09:18.700Z,99.90
2018-07-16T02:11:47.263Z,99.90
2018-07-16T02:14:15.758Z,99.90
2018-07-16T02:16:44.279Z,99.90
2018-07-16T02:19:12.783Z,99.90
2018-07-16T02:21:41.647Z,99.90
2018-07-16T02:24:10.159Z,99.90
2018-07-16T02:29:06.867Z,99.90
2018-07-16T02:31:35.375Z,99.90
2018-07-16T02:34:04.231Z,99.90
2018-07-16T02:36:32.723Z,99.90
2018-07-16T02:39:01.201Z,99.90
2018-07-16T02:41:29.698Z,99.90
2018-07-16T02:43:58.184Z,99.90
2018-07-16T02:46:26.692Z,99.90
2018-07-16T02:48:55.174Z,99.90
2018-07-16T02:51:23.708Z,99.90
2018-07-16T02:53:52.203Z,99.90
2018-07-16T02:56:20.736Z,99.90
2018-07-16T02:58:49.380Z,99.90
2018-07-16T03:01:18.214Z,99.90
2018-07-16T03:03:46.745Z,99.90
2018-07-16T03:06:15.230Z,99.90
2018-07-16T03:08:43.732Z,99.90
2018-07-16T03:11:12.234Z,99.90
2018-07-16T03:13:40.731Z,99.90
2018-07-16T03:16:09.580Z,99.90
2018-07-16T03:18:38.099Z,99.90
2018-07-16T03:21:06.583Z,99.90
2018-07-16T03:23:35.075Z,99.90
2018-07-16T03:26:03.547Z,99.90
2018-07-16T03:28:32.066Z,99.90
2018-07-16T03:31:00.939Z,99.90
2018-07-16T03:33:29.474Z,99.90
2018-07-16T03:35:57.963Z,99.90
2018-07-16T03:38:26.490Z,99.90
2018-07-16T03:40:54.951Z,99.90
2018-07-16T03:43:23.487Z,99.90
2018-07-16T03:45:51.976Z,99.90
2018-07-16T03:48:20.834Z,99.90
2018-07-16T03:50:49.304Z,99.90
2018-07-16T03:53:17.824Z,99.90
2018-07-16T03:55:46.357Z,99.90
2018-07-16T03:58:14.995Z,99.90
2018-07-16T04:00:43.516Z,99.90
2018-07-16T04:03:11.981Z,99.90
2018-07-16T04:05:40.471Z,99.90
2018-07-16T04:08:08.944Z,99.90
2018-07-16T04:10:37.835Z,99.90
2018-07-16T04:13:06.799Z,99.90
2018-07-16T04:15:35.340Z,99.90
2018-07-16T04:18:08.335Z,99.90
2018-07-16T04:20:36.835Z,99.90
2018-07-16T04:23:05.338Z,99.90
2018-07-16T04:25:33.872Z,99.90
2018-07-16T04:28:02.344Z,99.90
2018-07-16T04:30:30.854Z,99.90
2018-07-16T04:32:59.328Z,99.90
2018-07-16T04:35:27.834Z,99.90
2018-07-16T04:37:56.311Z,99.90
2018-07-16T04:40:25.187Z,99.90
2018-07-16T04:42:53.660Z,99.90
2018-07-16T04:45:22.378Z,99.90
2018-07-16T04:47:51.051Z,99.90
2018-07-16T04:50:19.569Z,99.90
2018-07-16T04:52:48.161Z,99.90
2018-07-16T04:55:16.642Z,99.90
2018-07-16T04:57:45.105Z,99.90
2018-07-16T05:00:14.411Z,99.90
2018-07-16T05:02:42.895Z,99.90
2018-07-16T05:05:11.400Z,99.90
2018-07-16T05:07:39.902Z,99.90
2018-07-16T05:10:08.440Z,99.90
2018-07-16T05:12:36.938Z,99.90
2018-07-16T05:15:05.540Z,99.90
2018-07-16T05:17:34.072Z,99.90
2018-07-16T05:20:02.596Z,99.90
2018-07-16T05:22:31.194Z,99.90
2018-07-16T05:24:59.711Z,99.90
2018-07-16T05:27:28.537Z,99.90
2018-07-16T05:29:57.023Z,99.90
2018-07-16T05:32:25.874Z,99.90
2018-07-16T05:34:54.247Z,99.90
2018-07-16T05:37:22.759Z,99.90
2018-07-16T05:39:51.318Z,99.90
2018-07-16T05:42:19.851Z,99.90
2018-07-16T05:44:48.343Z,99.90
2018-07-16T05:47:16.871Z,99.90
2018-07-16T05:49:45.369Z,99.90
2018-07-16T05:52:13.871Z,99.90
2018-07-16T05:54:42.722Z,99.90
2018-07-16T05:57:11.236Z,99.90
2018-07-16T05:59:39.699Z,99.90
2018-07-16T06:02:08.214Z,99.90
2018-07-16T06:04:36.707Z,99.90
2018-07-16T06:07:05.271Z,99.90
2018-07-16T06:09:33.762Z,99.90
2018-07-16T06:12:02.652Z,99.90
2018-07-16T06:14:31.141Z,99.90
2018-07-16T06:16:59.836Z,99.90
2018-07-16T06:19:28.331Z,99.90
2018-07-16T06:21:56.792Z,99.90
2018-07-16T06:24:25.307Z,99.90
2018-07-16T06:26:53.815Z,99.50
2018-07-16T06:29:22.311Z,83.10
2018-07-16T06:31:50.808Z,58.60
2018-07-16T06:34:19.352Z,51.70
2018-07-16T06:36:47.846Z,47.30
2018-07-16T06:39:16.347Z,45.10
2018-07-16T06:41:45.419Z,42.60
2018-07-16T06:44:14.471Z,39.10
2018-07-16T06:46:43.535Z,37.60
2018-07-16T06:49:12.640Z,36.30
2018-07-16T06:51:42.052Z,35.20
2018-07-16T06:54:11.126Z,35.90
2018-07-16T06:56:40.145Z,34.50
2018-07-16T06:59:09.207Z,35.30
2018-07-16T07:01:38.245Z,35.50
2018-07-16T07:04:07.812Z,34.70
2018-07-16T07:06:36.851Z,34.20
2018-07-16T07:09:06.435Z,33.70
2018-07-16T07:11:35.468Z,33.80
2018-07-16T07:14:04.519Z,34.40
2018-07-16T07:16:33.845Z,34.60
2018-07-16T07:19:02.896Z,34.50
2018-07-16T07:21:31.978Z,35.70
2018-07-16T07:24:01.002Z,39.10
2018-07-16T07:26:30.064Z,39.40
2018-07-16T07:28:59.110Z,37.80
2018-07-16T07:31:28.226Z,40.00
2018-07-16T07:33:57.259Z,41.30
2018-07-16T07:36:26.376Z,43.00
2018-07-16T07:38:55.403Z,44.10
2018-07-16T07:41:24.475Z,46.20
2018-07-16T07:43:53.682Z,46.70
2018-07-16T07:46:22.770Z,46.70
2018-07-16T07:51:20.932Z,47.80
2018-07-16T07:53:49.419Z,49.70
2018-07-16T07:56:17.923Z,50.60
2018-07-16T07:58:46.419Z,49.70
2018-07-16T08:01:14.968Z,47.70
2018-07-16T08:06:12.774Z,43.70
2018-07-16T08:08:41.871Z,41.00
2018-07-16T08:11:10.948Z,40.50
2018-07-16T08:13:40.473Z,39.90
2018-07-16T08:16:09.666Z,36.60
2018-07-16T08:18:38.931Z,36.30
2018-07-16T08:21:08.271Z,36.80
2018-07-16T08:23:37.458Z,37.10
2018-07-16T08:26:06.687Z,36.30
2018-07-16T08:28:36.004Z,36.30
2018-07-16T08:31:05.424Z,35.20
2018-07-16T08:33:34.687Z,35.50
2018-07-16T08:36:03.936Z,36.20
2018-07-16T08:38:33.375Z,35.90
2018-07-16T08:41:02.433Z,34.90
2018-07-16T08:43:31.494Z,35.80
2018-07-16T08:46:00.574Z,35.60
2018-07-16T08:48:29.404Z,36.30
2018-07-16T08:50:58.444Z,35.90
2018-07-16T08:53:27.886Z,35.70
2018-07-16T08:55:56.962Z,36.40
2018-07-16T08:58:26.073Z,36.80
2018-07-16T09:00:55.137Z,36.70
2018-07-16T09:03:24.207Z,39.00
2018-07-16T09:05:58.511Z,40.80
2018-07-16T09:08:27.582Z,40.30
2018-07-16T09:10:56.761Z,40.40
2018-07-16T09:13:26.076Z,41.80
2018-07-16T09:15:55.238Z,42.10
2018-07-16T09:18:24.294Z,42.80
2018-07-16T09:20:53.344Z,41.40
2018-07-16T09:23:22.390Z,41.70
2018-07-16T09:25:51.456Z,40.70
2018-07-16T09:28:20.560Z,41.60
2018-07-16T09:30:49.647Z,41.00
2018-07-16T09:33:18.144Z,43.30
2018-07-16T09:35:46.710Z,45.00
2018-07-16T09:38:15.246Z,46.10
2018-07-16T09:40:43.799Z,43.10
2018-07-16T09:43:12.571Z,44.00
2018-07-16T09:45:41.496Z,45.00
2018-07-16T09:48:09.995Z,43.90
2018-07-16T09:50:38.648Z,44.40
2018-07-16T09:53:07.901Z,44.50
2018-07-16T09:58:07.481Z,46.40
2018-07-16T10:00:43.443Z,45.50
2018-07-16T10:03:11.981Z,46.70
2018-07-16T10:05:40.485Z,45.10
2018-07-16T10:08:09.795Z,44.40
2018-07-16T10:10:38.319Z,44.40
2018-07-16T10:13:07.266Z,44.40
2018-07-16T10:15:35.780Z,44.60
2018-07-16T10:18:04.503Z,44.30
2018-07-16T10:20:33.015Z,46.30
2018-07-16T10:25:30.069Z,44.40
2018-07-16T10:27:58.776Z,44.00
2018-07-16T10:30:27.298Z,45.20
2018-07-16T10:32:55.841Z,44.80
2018-07-16T10:35:24.359Z,47.00
2018-07-16T10:37:52.881Z,45.30
2018-07-16T10:40:21.406Z,44.80
2018-07-16T10:42:49.923Z,45.70
2018-07-16T10:45:18.451Z,46.90
2018-07-16T10:47:47.315Z,45.10
2018-07-16T10:50:15.855Z,46.50
2018-07-16T10:52:44.345Z,45.50
2018-07-16T10:55:12.915Z,45.80
2018-07-16T10:57:41.598Z,46.40
2018-07-16T11:00:10.099Z,46.60
2018-07-16T11:02:38.618Z,47.20
2018-07-16T11:05:07.175Z,46.20
2018-07-16T11:07:35.672Z,46.10
2018-07-16T11:10:04.183Z,45.10
2018-07-16T11:12:32.885Z,45.30
2018-07-16T11:15:01.521Z,45.20
2018-07-16T11:17:30.252Z,47.60
2018-07-16T11:20:00.765Z,46.80
2018-07-16T11:22:30.224Z,44.70
2018-07-16T11:24:59.052Z,45.00
2018-07-16T11:27:28.319Z,47.50
2018-07-16T11:29:58.008Z,45.70
2018-07-16T11:32:28.632Z,43.40
2018-07-16T11:34:59.060Z,44.70
2018-07-16T11:37:28.870Z,43.80
2018-07-16T11:39:59.038Z,45.60
2018-07-16T11:42:27.584Z,45.00
2018-07-16T11:44:56.077Z,43.50
2018-07-16T11:47:24.596Z,44.60
2018-07-16T11:49:53.124Z,44.70
2018-07-16T11:52:22.085Z,42.90
2018-07-16T11:54:50.683Z,42.90
2018-07-16T11:57:19.223Z,42.10
2018-07-16T11:59:47.687Z,42.70
2018-07-16T12:02:16.335Z,42.80
2018-07-16T12:04:44.829Z,43.30
2018-07-16T12:07:13.323Z,42.70
2018-07-16T12:09:42.210Z,43.60
2018-07-16T12:12:10.685Z,41.60
2018-07-16T12:14:39.398Z,42.40
2018-07-16T12:17:07.912Z,41.00
2018-07-16T12:19:36.451Z,40.30
2018-07-16T12:22:04.985Z,41.60
2018-07-16T12:24:33.511Z,41.30
2018-07-16T12:29:30.227Z,43.40
2018-07-16T12:31:58.696Z,41.90
2018-07-16T12:34:27.215Z,42.90
2018-07-16T12:36:55.726Z,43.70
2018-07-16T12:39:24.234Z,42.10
2018-07-16T12:41:52.796Z,45.10
2018-07-16T12:44:21.410Z,41.60
2018-07-16T12:46:49.948Z,42.20
2018-07-16T12:49:18.614Z,40.80
2018-07-16T12:51:47.100Z,42.00
2018-07-16T12:54:15.602Z,43.10
2018-07-16T12:56:44.091Z,43.80
2018-07-16T12:59:12.600Z,43.60
2018-07-16T13:01:41.092Z,43.50
2018-07-16T13:04:09.586Z,44.00
2018-07-16T13:06:38.075Z,44.40
2018-07-16T13:09:08.509Z,44.70
2018-07-16T13:11:36.990Z,43.30
2018-07-16T13:14:06.353Z,44.10
2018-07-16T13:16:35.056Z,44.60
2018-07-16T13:19:03.579Z,43.70
2018-07-16T13:21:32.088Z,43.60
2018-07-16T13:24:00.591Z,44.90
2018-07-16T13:26:29.106Z,42.50
2018-07-16T13:28:57.588Z,41.80
2018-07-16T13:31:26.115Z,42.90
2018-07-16T13:33:54.662Z,41.80
2018-07-16T13:36:23.175Z,42.10
2018-07-16T13:38:52.495Z,41.70
2018-07-16T13:41:21.067Z,40.40
2018-07-16T13:46:17.818Z,41.60
2018-07-16T13:48:46.955Z,42.30
2018-07-16T13:51:15.478Z,41.70
2018-07-16T13:53:43.982Z,43.70
2018-07-16T13:56:12.546Z,41.60
2018-07-16T13:58:41.477Z,42.20
2018-07-16T14:03:38.172Z,41.40
2018-07-16T14:06:06.966Z,42.80
2018-07-16T14:08:35.497Z,41.40
2018-07-16T14:11:04.011Z,39.80
2018-07-16T14:13:32.526Z,40.70
2018-07-16T14:16:01.072Z,41.80
2018-07-16T14:18:29.935Z,41.80
2018-07-16T14:20:58.877Z,41.50
2018-07-16T14:23:27.456Z,41.10
2018-07-16T14:25:56.441Z,40.00
2018-07-16T14:28:24.975Z,41.50
2018-07-16T14:30:53.474Z,41.80
2018-07-16T14:33:22.019Z,41.70
2018-07-16T14:35:50.522Z,42.90
2018-07-16T14:38:19.099Z,41.70
2018-07-16T14:40:47.727Z,41.70
2018-07-16T14:43:16.226Z,41.80
2018-07-16T14:45:44.744Z,41.40
2018-07-16T14:48:13.251Z,43.10
2018-07-16T14:50:41.755Z,43.00
2018-07-16T14:53:10.284Z,41.10
2018-07-16T14:55:38.784Z,42.40
2018-07-16T14:58:07.688Z,41.20
2018-07-16T15:00:36.193Z,42.40
2018-07-16T15:04:29.141Z,41.70
2018-07-16T15:06:57.834Z,41.90
2018-07-16T15:09:26.398Z,38.70
2018-07-16T15:11:55.238Z,39.50
2018-07-16T15:14:24.455Z,39.60
2018-07-16T15:16:52.958Z,37.60
2018-07-16T15:19:21.520Z,37.60
2018-07-16T15:21:50.295Z,39.00
2018-07-16T15:24:18.807Z,38.20
2018-07-16T15:26:47.300Z,38.40
2018-07-16T15:29:15.795Z,40.00
2018-07-16T15:31:44.291Z,39.30
2018-07-16T15:34:12.795Z,40.30
2018-07-16T15:36:41.271Z,40.60
2018-07-16T15:39:09.798Z,39.60
2018-07-16T15:41:38.270Z,39.50
2018-07-16T15:44:07.160Z,40.00
2018-07-16T15:46:35.682Z,41.80
2018-07-16T15:49:04.228Z,41.60
2018-07-16T15:51:32.987Z,40.50
2018-07-16T15:54:01.503Z,40.10
2018-07-16T15:56:30.024Z,39.40
2018-07-16T15:58:58.540Z,40.00
2018-07-16T16:01:27.090Z,40.90
2018-07-16T16:03:55.583Z,40.90
2018-07-16T16:06:24.119Z,40.90
2018-07-16T16:08:52.682Z,42.30
2018-07-16T16:11:21.740Z,41.50
2018-07-16T16:13:51.119Z,42.20
2018-07-16T16:16:20.295Z,43.00
2018-07-16T16:18:49.015Z,43.00
2018-07-16T16:21:17.927Z,44.20
2018-07-16T16:23:46.451Z,42.40
2018-07-16T16:26:15.006Z,41.90
2018-07-16T16:28:43.750Z,41.40
2018-07-16T16:31:12.619Z,41.90
2018-07-16T16:33:41.122Z,41.70
2018-07-16T16:36:09.630Z,42.70
2018-07-16T16:38:38.215Z,42.20
2018-07-16T16:41:07.351Z,42.30
2018-07-16T16:43:35.982Z,41.40
2018-07-16T16:46:05.124Z,42.30
2018-07-16T16:48:34.007Z,42.70
2018-07-16T16:51:02.527Z,42.40
2018-07-16T16:53:32.091Z,42.30
2018-07-16T16:56:01.273Z,43.90
2018-07-16T16:58:29.940Z,42.80
2018-07-16T17:00:58.623Z,43.80
2018-07-16T17:03:27.130Z,43.60
2018-07-16T17:05:55.640Z,44.10
2018-07-16T17:08:24.154Z,44.00
2018-07-16T17:10:52.624Z,44.00
2018-07-16T17:13:21.153Z,42.50
2018-07-16T17:15:49.666Z,43.30
2018-07-16T17:18:18.291Z,44.10
2018-07-16T17:20:47.098Z,44.40
2018-07-16T17:23:15.993Z,43.80
2018-07-16T17:25:45.021Z,43.70
2018-07-16T17:28:13.556Z,44.00
2018-07-16T17:30:42.106Z,44.00
2018-07-16T17:33:10.687Z,42.60
2018-07-16T17:35:39.187Z,42.20
2018-07-16T17:38:07.692Z,42.20
2018-07-16T17:40:36.208Z,42.90
2018-07-16T17:43:05.505Z,44.70
2018-07-16T17:45:34.178Z,43.40
2018-07-16T17:48:03.718Z,43.70
2018-07-16T17:50:32.616Z,43.90
2018-07-16T17:53:01.168Z,43.90
2018-07-16T17:55:29.859Z,45.30
2018-07-16T17:57:58.507Z,44.40
2018-07-16T18:00:27.101Z,44.50
2018-07-16T18:03:05.071Z,45.00
2018-07-16T18:05:36.817Z,46.10
2018-07-16T18:08:08.626Z,46.20
2018-07-16T18:10:38.872Z,46.80
2018-07-16T18:13:07.526Z,47.20
2018-07-16T18:15:36.215Z,47.50
2018-07-16T18:18:08.346Z,48.30
2018-07-16T18:20:38.567Z,48.80
2018-07-16T18:23:09.474Z,49.00
2018-07-16T18:25:38.554Z,49.50
2018-07-16T18:28:11.070Z,50.60
2018-07-16T18:30:41.760Z,50.10
2018-07-16T18:33:10.622Z,50.20
2018-07-16T18:35:40.073Z,51.50
2018-07-16T18:38:10.637Z,51.30
2018-07-16T18:40:39.724Z,51.20
2018-07-16T18:43:08.787Z,50.90
2018-07-16T18:45:38.800Z,52.10
2018-07-16T18:48:07.307Z,52.50
2018-07-16T18:50:38.819Z,52.40
2018-07-16T18:53:09.268Z,52.10
2018-07-16T18:55:38.123Z,53.20
2018-07-16T18:58:12.698Z,52.50
2018-07-16T19:00:42.923Z,53.90
2018-07-16T19:03:14.714Z,54.00
2018-07-16T19:05:44.139Z,54.60
2018-07-16T19:08:20.150Z,54.80
2018-07-16T19:10:51.994Z,55.70
2018-07-16T19:13:26.688Z,56.50
2018-07-16T19:15:57.164Z,56.50
2018-07-16T19:18:27.973Z,57.10
2018-07-16T19:23:30.065Z,58.40
2018-07-16T19:26:00.637Z,59.40
2018-07-16T19:28:32.047Z,58.80
2018-07-16T19:31:02.818Z,59.60
2018-07-16T19:33:36.327Z,59.80
2018-07-16T19:36:04.879Z,60.30
2018-07-16T19:38:34.101Z,60.10
2018-07-16T19:43:30.926Z,62.50
2018-07-16T19:45:59.416Z,62.20
2018-07-16T19:48:27.926Z,63.40
2018-07-16T19:50:56.431Z,64.30
2018-07-16T19:53:25.071Z,63.60
2018-07-16T19:55:53.595Z,66.30
2018-07-16T19:58:22.119Z,65.00
2018-07-16T20:00:50.638Z,65.20
2018-07-16T20:03:19.471Z,66.10
2018-07-16T20:05:47.983Z,68.10
2018-07-16T20:08:16.518Z,68.40
2018-07-16T20:10:44.995Z,68.10
2018-07-16T20:13:13.539Z,66.80
2018-07-16T20:15:42.240Z,68.80
2018-07-16T20:18:10.851Z,68.80
2018-07-16T20:20:50.379Z,68.80
2018-07-16T20:23:19.021Z,69.70
2018-07-16T20:25:47.699Z,71.90
2018-07-16T20:28:16.966Z,73.50
2018-07-16T20:30:45.427Z,73.30
2018-07-16T20:33:14.011Z,74.20
2018-07-16T20:35:42.565Z,72.90
2018-07-16T20:38:11.251Z,75.40
2018-07-16T20:40:39.776Z,75.80
2018-07-16T20:43:08.319Z,75.90
2018-07-16T20:45:36.810Z,76.00
2018-07-16T20:48:05.675Z,77.80
2018-07-16T20:50:34.533Z,76.60
2018-07-16T20:53:04.060Z,80.10
2018-07-16T20:55:33.116Z,79.60
2018-07-16T20:58:01.604Z,81.20
2018-07-16T21:00:30.095Z,86.10
2018-07-16T21:02:58.580Z,89.30
2018-07-16T21:05:27.046Z,86.00
2018-07-16T21:07:55.589Z,86.30
2018-07-16T21:10:24.267Z,90.10
2018-07-16T21:12:52.734Z,87.80
2018-07-16T21:15:21.279Z,90.30
2018-07-16T21:17:50.203Z,92.70
2018-07-16T21:20:19.049Z,93.20
2018-07-16T21:22:47.592Z,94.00
2018-07-16T21:25:16.539Z,95.50
2018-07-16T21:27:45.170Z,93.40
2018-07-16T21:30:14.414Z,94.20
2018-07-16T21:32:42.955Z,93.00
2018-07-16T21:35:12.156Z,95.10
2018-07-16T21:37:40.689Z,96.30
2018-07-16T21:40:09.225Z,96.40
2018-07-16T21:42:38.139Z,97.30
2018-07-16T21:45:06.692Z,97.40
2018-07-16T21:47:35.199Z,97.00
2018-07-16T21:50:03.764Z,99.30
2018-07-16T21:52:32.244Z,99.90
2018-07-16T21:55:00.761Z,99.90
2018-07-16T21:57:29.299Z,99.90
2018-07-16T21:59:58.179Z,99.90
2018-07-16T22:02:26.773Z,99.90
2018-07-16T22:04:55.992Z,99.90
2018-07-16T22:07:24.532Z,99.90
2018-07-16T22:09:53.024Z,99.90
2018-07-16T22:12:21.607Z,99.90
2018-07-16T22:14:50.496Z,99.90
2018-07-16T22:17:19.022Z,99.90
2018-07-16T22:19:47.510Z,99.90
2018-07-16T22:22:16.315Z,99.90
2018-07-16T22:24:45.026Z,99.90
2018-07-16T22:27:13.791Z,99.90
2018-07-16T22:29:42.286Z,99.90
2018-07-16T22:32:10.815Z,99.90
2018-07-16T22:34:39.296Z,99.90
2018-07-16T22:37:07.839Z,99.90
2018-07-16T22:39:36.341Z,99.90
2018-07-16T22:42:04.898Z,99.90
2018-07-16T22:44:33.415Z,99.90
2018-07-16T22:47:01.939Z,99.90
2018-07-16T22:49:30.421Z,99.90
2018-07-16T22:54:27.470Z,99.90
2018-07-16T22:56:55.998Z,99.90
2018-07-16T22:59:24.827Z,99.90
2018-07-16T23:01:53.327Z,99.90
2018-07-16T23:04:21.920Z,99.90
2018-07-16T23:06:50.456Z,99.90
2018-07-16T23:09:19.099Z,99.90
2018-07-16T23:11:47.604Z,99.90
2018-07-16T23:14:16.580Z,99.90
2018-07-16T23:16:45.069Z,99.90
2018-07-16T23:19:13.576Z,99.90
2018-07-16T23:21:42.115Z,99.90
2018-07-16T23:24:10.697Z,99.90
2018-07-16T23:26:39.250Z,99.90
2018-07-16T23:29:08.611Z,99.90
2018-07-16T23:31:37.391Z,99.90
2018-07-16T23:34:06.185Z,99.90
2018-07-16T23:39:04.040Z,99.90
2018-07-16T23:41:32.846Z,99.90
2018-07-16T23:44:01.405Z,99.90
2018-07-16T23:46:30.142Z,99.90
2018-07-16T23:48:59.016Z,99.90
2018-07-16T23:51:27.823Z,99.90
2018-07-16T23:53:56.326Z,99.90
2018-07-16T23:56:24.839Z,99.90
2018-07-16T23:58:53.429Z,99.90
